Time;durP1;ratioP1;P1;durP2;ratioP2;P2;SDS_P1;SDS_P2;PMS_P1;PMS_P2;Temp;Humidity;BMP_temperature;BMP_pressure;BME280_temperature;BME280_humidity;BME280_pressure;Samples;Min_cycle;Max_cycle;Signal;HPM_P1;HPM_P2
2023/10/28 00:01:14;;;;;;;12.88;8.80;;;;;;;;;;4982047;28;20061;-69
2023/10/28 00:03:41;;;;;;;14.10;9.02;;;;;;;;;;4980532;28;20773;-69
2023/10/28 00:06:07;;;;;;;11.98;8.40;;;;;;;;;;4981698;28;20084;-70
2023/10/28 00:08:33;;;;;;;20.85;9.05;;;;;;;;;;4981193;28;20054;-69
2023/10/28 00:11:00;;;;;;;11.75;8.20;;;;;;;;;;4982052;28;20038;-69
2023/10/28 00:13:26;;;;;;;12.93;7.45;;;;;;;;;;4981014;28;20129;-69
2023/10/28 00:15:52;;;;;;;12.60;8.45;;;;;;;;;;4982978;28;20038;-69
2023/10/28 00:18:18;;;;;;;11.57;8.38;;;;;;;;;;4980748;28;20034;-69
2023/10/28 00:20:47;;;;;;;12.48;8.65;;;;;;;;;;4980099;28;20030;-70
2023/10/28 00:23:14;;;;;;;13.65;9.40;;;;;;;;;;4980398;28;20043;-69
2023/10/28 00:25:40;;;;;;;12.10;9.18;;;;;;;;;;4980676;28;20037;-69
2023/10/28 00:28:06;;;;;;;14.07;9.63;;;;;;;;;;4981708;28;21159;-69
2023/10/28 00:30:33;;;;;;;14.77;9.23;;;;;;;;;;4979661;28;20293;-69
2023/10/28 00:32:59;;;;;;;15.93;10.63;;;;;;;;;;4980158;28;20065;-69
2023/10/28 00:35:28;;;;;;;19.67;10.90;;;;;;;;;;4978681;28;21869;-69
2023/10/28 00:37:54;;;;;;;14.57;11.05;;;;;;;;;;4982622;28;20069;-69
2023/10/28 00:40:20;;;;;;;19.02;12.63;;;;;;;;;;4978858;28;20644;-69
2023/10/28 00:42:46;;;;;;;16.95;11.75;;;;;;;;;;4982174;28;20031;-69
2023/10/28 00:45:16;;;;;;;16.40;11.52;;;;;;;;;;4979507;28;20022;-69
2023/10/28 00:47:46;;;;;;;18.13;11.82;;;;;;;;;;4979597;28;20156;-69
2023/10/28 00:50:14;;;;;;;16.50;11.57;;;;;;;;;;4981361;28;20030;-69
2023/10/28 00:52:47;;;;;;;17.15;12.73;;;;;;;;;;4979072;28;20057;-69
2023/10/28 00:55:13;;;;;;;14.73;11.18;;;;;;;;;;4981590;28;20807;-69
2023/10/28 00:57:41;;;;;;;18.95;12.57;;;;;;;;;;4984074;28;20536;-69
2023/10/28 01:00:07;;;;;;;18.15;12.38;;;;;;;;;;4991712;28;20061;-69
2023/10/28 01:02:35;;;;;;;19.08;13.57;;;;;;;;;;4979331;28;20037;-69
2023/10/28 01:05:02;;;;;;;21.42;14.38;;;;;;;;;;4980065;28;20026;-69
2023/10/28 01:07:28;;;;;;;23.13;15.82;;;;;;;;;;4977664;28;20373;-69
2023/10/28 01:09:55;;;;;;;23.48;15.45;;;;;;;;;;4979039;28;20034;-69
2023/10/28 01:12:26;;;;;;;22.05;15.98;;;;;;;;;;4981060;28;20375;-69
2023/10/28 01:14:52;;;;;;;24.40;17.42;;;;;;;;;;4979456;28;20228;-69
2023/10/28 01:17:21;;;;;;;23.48;15.98;;;;;;;;;;4980207;28;20081;-69
2023/10/28 01:19:47;;;;;;;23.58;16.40;;;;;;;;;;4979352;28;20038;-69
2023/10/28 01:22:13;;;;;;;34.28;19.67;;;;;;;;;;4981643;28;20030;-69
2023/10/28 01:24:40;;;;;;;28.92;18.17;;;;;;;;;;4990296;28;20049;-69
2023/10/28 01:27:09;;;;;;;30.27;19.17;;;;;;;;;;4979598;28;20026;-69
2023/10/28 01:29:35;;;;;;;28.05;18.42;;;;;;;;;;4976760;28;20089;-69
2023/10/28 01:32:03;;;;;;;28.88;18.92;;;;;;;;;;4977823;28;20042;-69
2023/10/28 01:34:29;;;;;;;31.50;20.17;;;;;;;;;;4979052;28;20504;-69
2023/10/28 01:36:59;;;;;;;29.58;19.48;;;;;;;;;;4979404;28;20476;-70
2023/10/28 01:39:26;;;;;;;31.45;20.30;;;;;;;;;;4977466;28;20037;-70
2023/10/28 01:41:52;;;;;;;27.80;19.27;;;;;;;;;;4979094;28;20025;-69
2023/10/28 01:44:18;;;;;;;34.05;19.88;;;;;;;;;;4980179;28;20220;-69
2023/10/28 01:46:44;;;;;;;41.90;22.48;;;;;;;;;;4977415;28;20073;-69
2023/10/28 01:49:11;;;;;;;28.00;20.23;;;;;;;;;;4980068;28;20053;-70
2023/10/28 01:51:37;;;;;;;37.22;23.05;;;;;;;;;;4978580;28;20048;-69
2023/10/28 01:54:03;;;;;;;28.27;19.88;;;;;;;;;;4980525;28;20041;-69
2023/10/28 01:56:29;;;;;;;30.40;20.55;;;;;;;;;;4978950;28;20042;-69
2023/10/28 01:58:56;;;;;;;35.33;22.67;;;;;;;;;;4978516;28;20177;-69
2023/10/28 02:01:25;;;;;;;28.90;20.10;;;;;;;;;;4979024;28;21985;-69
2023/10/28 02:03:53;;;;;;;33.25;21.10;;;;;;;;;;4978215;28;20034;-69
2023/10/28 02:06:19;;;;;;;28.63;19.85;;;;;;;;;;4979002;28;20022;-69
2023/10/28 02:08:45;;;;;;;34.25;21.48;;;;;;;;;;4979376;28;20038;-69
2023/10/28 02:11:11;;;;;;;33.15;21.50;;;;;;;;;;4978874;28;20497;-69
2023/10/28 02:13:39;;;;;;;39.55;21.85;;;;;;;;;;4978039;28;20980;-69
2023/10/28 02:16:06;;;;;;;36.20;22.40;;;;;;;;;;4978483;28;20114;-69
2023/10/28 02:18:33;;;;;;;30.80;20.40;;;;;;;;;;4989448;28;20450;-69
2023/10/28 02:20:59;;;;;;;31.90;20.88;;;;;;;;;;4977966;28;20176;-69
2023/10/28 02:23:26;;;;;;;29.85;20.20;;;;;;;;;;4979275;28;20030;-69
2023/10/28 02:25:52;;;;;;;32.97;21.52;;;;;;;;;;4978419;28;20030;-70
2023/10/28 02:28:18;;;;;;;31.65;21.33;;;;;;;;;;4978292;28;20097;-69
2023/10/28 02:30:44;;;;;;;30.67;21.65;;;;;;;;;;4979151;28;20037;-69
2023/10/28 02:33:10;;;;;;;33.15;20.90;;;;;;;;;;4977601;28;20050;-69
2023/10/28 02:35:36;;;;;;;30.02;19.40;;;;;;;;;;4978047;28;20046;-69
2023/10/28 02:38:03;;;;;;;32.63;20.20;;;;;;;;;;4980101;28;21837;-69
2023/10/28 02:40:29;;;;;;;27.40;19.95;;;;;;;;;;4977834;28;20053;-69
2023/10/28 02:42:55;;;;;;;31.35;20.42;;;;;;;;;;4978859;28;20038;-69
2023/10/28 02:45:21;;;;;;;33.50;21.67;;;;;;;;;;4977423;28;20030;-69
2023/10/28 02:47:49;;;;;;;32.25;19.98;;;;;;;;;;4978526;28;20689;-69
2023/10/28 02:50:16;;;;;;;34.72;20.98;;;;;;;;;;4978591;28;20545;-69
2023/10/28 02:52:42;;;;;;;29.13;19.38;;;;;;;;;;4978455;28;20050;-70
2023/10/28 02:55:09;;;;;;;28.90;18.80;;;;;;;;;;4994810;28;20121;-69
2023/10/28 02:57:35;;;;;;;38.60;20.67;;;;;;;;;;4979794;28;20164;-69
2023/10/28 03:00:01;;;;;;;34.45;19.30;;;;;;;;;;4981912;28;20061;-69
2023/10/28 03:02:27;;;;;;;34.35;19.83;;;;;;;;;;4982642;28;20061;-69
2023/10/28 03:04:54;;;;;;;29.70;18.25;;;;;;;;;;4983764;28;20068;-69
2023/10/28 03:07:20;;;;;;;32.10;17.80;;;;;;;;;;4981847;28;20165;-69
2023/10/28 03:09:46;;;;;;;31.63;18.55;;;;;;;;;;4981741;28;20045;-69
2023/10/28 03:12:15;;;;;;;25.65;17.15;;;;;;;;;;4984078;28;20034;-69
2023/10/28 03:14:41;;;;;;;26.25;17.65;;;;;;;;;;4978278;28;20034;-70
2023/10/28 03:17:08;;;;;;;27.17;17.40;;;;;;;;;;4983632;28;20053;-69
2023/10/28 03:19:35;;;;;;;28.23;17.25;;;;;;;;;;4981739;28;20169;-70
2023/10/28 03:22:01;;;;;;;26.80;17.70;;;;;;;;;;4981852;28;20110;-69
2023/10/28 03:24:28;;;;;;;28.23;17.38;;;;;;;;;;4982790;28;20034;-69
2023/10/28 03:26:55;;;;;;;28.25;16.90;;;;;;;;;;4981725;28;20034;-69
2023/10/28 03:29:21;;;;;;;28.08;17.45;;;;;;;;;;4982276;28;20033;-69
2023/10/28 03:31:47;;;;;;;28.23;17.38;;;;;;;;;;4983044;28;20029;-69
2023/10/28 03:34:13;;;;;;;24.83;16.58;;;;;;;;;;4982018;28;20074;-69
2023/10/28 03:36:39;;;;;;;33.33;17.70;;;;;;;;;;4981726;28;20045;-69
2023/10/28 03:39:06;;;;;;;24.75;17.13;;;;;;;;;;4983459;28;20045;-69
2023/10/28 03:41:32;;;;;;;24.63;15.48;;;;;;;;;;4995585;28;21786;-69
2023/10/28 03:43:58;;;;;;;27.08;16.00;;;;;;;;;;4980608;28;20022;-69
2023/10/28 03:46:25;;;;;;;25.85;17.30;;;;;;;;;;4979314;28;20038;-69
2023/10/28 03:48:51;;;;;;;26.05;16.05;;;;;;;;;;4979340;28;20036;-69
2023/10/28 03:51:17;;;;;;;24.70;16.10;;;;;;;;;;4980395;28;20472;-69
2023/10/28 03:53:44;;;;;;;23.00;15.27;;;;;;;;;;4980799;28;20066;-69
2023/10/28 03:56:10;;;;;;;25.13;14.40;;;;;;;;;;4980418;28;21830;-69
2023/10/28 03:58:36;;;;;;;29.92;16.25;;;;;;;;;;4982582;28;21055;-69
2023/10/28 04:01:02;;;;;;;24.70;15.73;;;;;;;;;;4981060;28;20058;-69
2023/10/28 04:03:29;;;;;;;23.60;15.30;;;;;;;;;;4999036;28;20084;-70
2023/10/28 04:05:55;;;;;;;23.02;14.30;;;;;;;;;;4979772;28;20162;-69
2023/10/28 04:08:21;;;;;;;22.85;13.63;;;;;;;;;;4997075;28;20038;-69
2023/10/28 04:10:47;;;;;;;25.88;14.18;;;;;;;;;;4981572;28;20037;-69
2023/10/28 04:13:13;;;;;;;23.73;14.57;;;;;;;;;;4982237;28;20105;-69
2023/10/28 04:15:39;;;;;;;25.02;14.70;;;;;;;;;;4979413;28;20038;-69
2023/10/28 04:18:06;;;;;;;25.05;14.40;;;;;;;;;;4981979;28;20034;-69
2023/10/28 04:20:33;;;;;;;22.30;13.68;;;;;;;;;;4978722;28;20057;-69
2023/10/28 04:22:59;;;;;;;24.38;14.90;;;;;;;;;;4980833;28;20061;-69
2023/10/28 04:25:27;;;;;;;21.58;13.93;;;;;;;;;;4979769;28;20038;-69
2023/10/28 04:27:53;;;;;;;22.38;14.07;;;;;;;;;;4980038;28;20037;-69
2023/10/28 04:30:19;;;;;;;20.95;14.35;;;;;;;;;;4980590;28;21022;-69
2023/10/28 04:32:45;;;;;;;20.67;13.25;;;;;;;;;;4980355;28;21030;-69
2023/10/28 04:35:11;;;;;;;25.17;14.63;;;;;;;;;;4980995;28;20729;-69
2023/10/28 04:37:37;;;;;;;20.48;13.90;;;;;;;;;;4980416;28;20037;-70
2023/10/28 04:40:05;;;;;;;19.35;13.95;;;;;;;;;;4981125;28;20038;-69
2023/10/28 04:42:31;;;;;;;21.08;13.98;;;;;;;;;;4978430;28;20058;-69
2023/10/28 04:44:57;;;;;;;23.15;14.20;;;;;;;;;;4981184;28;20400;-70
2023/10/28 04:47:24;;;;;;;23.83;13.82;;;;;;;;;;4977929;28;20030;-69
2023/10/28 04:49:50;;;;;;;22.08;14.55;;;;;;;;;;4982474;28;20108;-69
2023/10/28 04:52:17;;;;;;;22.42;14.13;;;;;;;;;;4996002;28;20038;-70
2023/10/28 04:54:43;;;;;;;29.27;14.63;;;;;;;;;;4980117;28;20089;-70
2023/10/28 04:57:09;;;;;;;24.00;13.13;;;;;;;;;;4980337;28;20515;-70
2023/10/28 04:59:35;;;;;;;32.10;16.15;;;;;;;;;;4994686;28;20176;-69
2023/10/28 05:02:01;;;;;;;24.60;14.15;;;;;;;;;;4980642;28;20037;-69
2023/10/28 05:04:28;;;;;;;22.23;14.38;;;;;;;;;;4980012;28;20073;-69
2023/10/28 05:06:54;;;;;;;28.88;15.55;;;;;;;;;;4980849;28;20886;-69
2023/10/28 05:09:20;;;;;;;24.63;15.02;;;;;;;;;;4979292;28;20034;-69
2023/10/28 05:11:56;;;;;;;27.13;15.38;;;;;;;;;;4980121;28;20799;-69
2023/10/28 05:14:25;;;;;;;22.95;14.63;;;;;;;;;;4980633;28;20035;-69
2023/10/28 05:16:55;;;;;;;24.42;14.98;;;;;;;;;;4979047;28;20123;-69
2023/10/28 05:19:22;;;;;;;27.60;14.55;;;;;;;;;;4979906;28;20153;-69
2023/10/28 05:21:48;;;;;;;27.83;16.25;;;;;;;;;;4978048;28;20040;-69
2023/10/28 05:24:15;;;;;;;28.85;16.33;;;;;;;;;;4979670;28;20022;-69
2023/10/28 05:26:42;;;;;;;29.92;15.45;;;;;;;;;;4978145;28;20044;-69
2023/10/28 05:29:09;;;;;;;30.90;15.20;;;;;;;;;;4980837;28;20053;-69
2023/10/28 05:31:35;;;;;;;24.05;14.82;;;;;;;;;;4978782;28;20045;-69
2023/10/28 05:34:02;;;;;;;22.90;14.48;;;;;;;;;;4975396;28;20035;-69
2023/10/28 05:36:28;;;;;;;26.33;15.10;;;;;;;;;;4980672;28;20084;-69
2023/10/28 05:38:55;;;;;;;26.23;14.32;;;;;;;;;;4978619;28;20040;-69
2023/10/28 05:41:22;;;;;;;31.75;16.58;;;;;;;;;;4980233;28;20088;-69
2023/10/28 05:43:48;;;;;;;24.15;15.18;;;;;;;;;;4979152;28;20085;-69
2023/10/28 05:46:15;;;;;;;27.17;14.40;;;;;;;;;;4979881;28;20026;-69
2023/10/28 05:48:41;;;;;;;37.85;17.75;;;;;;;;;;4979234;28;20477;-69
2023/10/28 05:51:09;;;;;;;29.70;14.57;;;;;;;;;;4979734;28;20142;-69
2023/10/28 05:53:35;;;;;;;29.92;15.50;;;;;;;;;;4979123;28;20145;-69
2023/10/28 05:56:01;;;;;;;25.25;15.27;;;;;;;;;;4978081;28;20065;-69
2023/10/28 05:58:27;;;;;;;35.72;15.90;;;;;;;;;;4979369;28;21139;-69
2023/10/28 06:00:54;;;;;;;25.67;14.90;;;;;;;;;;4989519;28;21655;-70
2023/10/28 06:03:20;;;;;;;27.63;15.88;;;;;;;;;;4980198;28;20033;-69
2023/10/28 06:05:46;;;;;;;27.98;15.68;;;;;;;;;;4978358;28;20041;-69
2023/10/28 06:08:13;;;;;;;29.88;15.88;;;;;;;;;;4979823;28;20041;-68
2023/10/28 06:10:39;;;;;;;25.83;14.38;;;;;;;;;;4978265;28;20077;-68
2023/10/28 06:13:06;;;;;;;23.95;14.35;;;;;;;;;;4979771;28;20040;-69
2023/10/28 06:15:34;;;;;;;30.23;15.75;;;;;;;;;;4978620;28;20042;-69
2023/10/28 06:18:00;;;;;;;28.40;15.73;;;;;;;;;;4978543;28;20037;-69
2023/10/28 06:20:26;;;;;;;25.95;15.00;;;;;;;;;;4979381;28;20040;-69
2023/10/28 06:22:52;;;;;;;27.05;15.32;;;;;;;;;;4977576;28;20031;-69
2023/10/28 06:25:18;;;;;;;28.52;15.68;;;;;;;;;;4981164;28;20622;-69
2023/10/28 06:27:44;;;;;;;26.13;15.70;;;;;;;;;;4977106;28;21105;-69
2023/10/28 06:30:11;;;;;;;28.33;15.75;;;;;;;;;;4980861;28;20963;-69
2023/10/28 06:32:38;;;;;;;23.80;14.30;;;;;;;;;;4981027;28;20432;-69
2023/10/28 06:35:05;;;;;;;28.63;14.75;;;;;;;;;;4981630;28;20034;-69
2023/10/28 06:37:31;;;;;;;29.52;14.77;;;;;;;;;;4981762;28;20041;-69
2023/10/28 06:39:58;;;;;;;23.45;13.77;;;;;;;;;;4982800;28;20073;-69
2023/10/28 06:42:24;;;;;;;24.63;13.95;;;;;;;;;;4983571;28;20034;-69
2023/10/28 06:44:50;;;;;;;21.63;13.60;;;;;;;;;;4981811;28;20034;-69
2023/10/28 06:47:16;;;;;;;19.35;13.23;;;;;;;;;;4983134;28;20038;-69
2023/10/28 06:49:42;;;;;;;18.88;12.23;;;;;;;;;;4981145;28;20042;-69
2023/10/28 06:52:09;;;;;;;31.38;14.45;;;;;;;;;;4980814;28;20116;-69
2023/10/28 06:54:35;;;;;;;21.42;13.68;;;;;;;;;;4981554;28;20041;-69
2023/10/28 06:57:01;;;;;;;22.25;12.80;;;;;;;;;;4983721;28;20113;-69
2023/10/28 06:59:27;;;;;;;22.80;12.60;;;;;;;;;;4981538;28;20151;-69
2023/10/28 07:01:53;;;;;;;22.63;12.52;;;;;;;;;;4983097;28;20137;-69
2023/10/28 07:04:21;;;;;;;18.95;11.48;;;;;;;;;;4982386;28;20034;-69
2023/10/28 07:06:47;;;;;;;20.40;10.70;;;;;;;;;;4981353;28;20046;-69
2023/10/28 07:09:15;;;;;;;14.68;10.38;;;;;;;;;;4980632;28;20040;-69
2023/10/28 07:11:42;;;;;;;21.60;10.77;;;;;;;;;;4981695;28;21763;-69
2023/10/28 07:14:09;;;;;;;19.13;10.52;;;;;;;;;;4981502;28;20031;-69
2023/10/28 07:16:35;;;;;;;19.63;9.77;;;;;;;;;;4981494;28;20026;-69
2023/10/28 07:19:01;;;;;;;19.63;10.45;;;;;;;;;;4982865;28;21426;-69
2023/10/28 07:21:27;;;;;;;19.25;10.25;;;;;;;;;;4981690;28;20081;-69
2023/10/28 07:23:54;;;;;;;17.17;9.18;;;;;;;;;;4978808;28;20034;-70
2023/10/28 07:26:20;;;;;;;17.65;9.95;;;;;;;;;;4981563;28;20116;-69
2023/10/28 07:28:46;;;;;;;23.63;10.23;;;;;;;;;;4980856;28;20064;-69
2023/10/28 07:31:12;;;;;;;15.13;8.85;;;;;;;;;;4982096;28;20034;-70
2023/10/28 07:33:38;;;;;;;13.20;7.97;;;;;;;;;;4980766;28;20081;-69
2023/10/28 07:36:04;;;;;;;14.30;7.45;;;;;;;;;;4980293;28;20035;-69
2023/10/28 07:38:31;;;;;;;15.05;7.90;;;;;;;;;;4981157;28;20226;-69
2023/10/28 07:40:57;;;;;;;15.40;8.20;;;;;;;;;;4982780;28;20081;-69
2023/10/28 07:43:24;;;;;;;20.05;8.40;;;;;;;;;;4979350;28;20041;-69
2023/10/28 07:45:50;;;;;;;15.15;7.80;;;;;;;;;;4979594;28;20040;-69
2023/10/28 07:48:16;;;;;;;14.88;8.27;;;;;;;;;;4982245;28;20034;-70
2023/10/28 07:50:43;;;;;;;16.00;7.05;;;;;;;;;;4979872;28;20045;-70
2023/10/28 07:53:10;;;;;;;12.35;7.18;;;;;;;;;;4979998;28;20095;-70
2023/10/28 07:55:39;;;;;;;13.20;7.60;;;;;;;;;;4978605;28;20035;-70
2023/10/28 07:58:05;;;;;;;12.18;7.45;;;;;;;;;;4982594;28;20081;-69
2023/10/28 08:00:32;;;;;;;12.90;7.45;;;;;;;;;;4978978;28;20038;-70
2023/10/28 08:03:00;;;;;;;17.27;6.72;;;;;;;;;;4979800;28;20032;-70
2023/10/28 08:05:27;;;;;;;11.55;6.47;;;;;;;;;;4980297;28;20862;-70
2023/10/28 08:07:53;;;;;;;10.82;6.30;;;;;;;;;;4980799;28;20435;-69
2023/10/28 08:10:22;;;;;;;11.57;5.55;;;;;;;;;;4980356;28;21594;-70
2023/10/28 08:12:56;;;;;;;12.43;5.38;;;;;;;;;;4977978;28;20072;-70
2023/10/28 08:15:22;;;;;;;11.10;6.45;;;;;;;;;;4979128;28;20572;-70
2023/10/28 08:17:50;;;;;;;11.93;5.88;;;;;;;;;;4979156;28;20753;-70
2023/10/28 08:20:17;;;;;;;10.00;5.78;;;;;;;;;;4979765;28;20045;-69
2023/10/28 08:22:44;;;;;;;11.50;5.90;;;;;;;;;;4979542;28;20137;-70
2023/10/28 08:25:11;;;;;;;10.70;5.85;;;;;;;;;;4979143;28;20039;-70
2023/10/28 08:27:37;;;;;;;10.48;5.85;;;;;;;;;;4979772;28;20041;-69
2023/10/28 08:30:03;;;;;;;11.60;5.90;;;;;;;;;;4983661;28;20077;-69
2023/10/28 08:32:31;;;;;;;11.48;6.05;;;;;;;;;;4999774;28;20046;-70
2023/10/28 08:34:57;;;;;;;9.80;5.45;;;;;;;;;;4981390;28;20064;-70
2023/10/28 08:37:23;;;;;;;10.68;5.70;;;;;;;;;;4981019;28;20026;-70
2023/10/28 08:39:49;;;;;;;12.80;5.53;;;;;;;;;;4978977;28;20336;-70
2023/10/28 08:42:17;;;;;;;10.90;5.75;;;;;;;;;;4980146;28;20143;-70
2023/10/28 08:44:43;;;;;;;14.32;6.40;;;;;;;;;;4979325;28;20022;-70
2023/10/28 08:47:09;;;;;;;13.18;5.60;;;;;;;;;;4980998;28;20068;-70
2023/10/28 08:49:40;;;;;;;17.65;6.28;;;;;;;;;;4979087;28;20038;-70
2023/10/28 08:52:09;;;;;;;9.43;5.32;;;;;;;;;;4980268;28;20036;-69
2023/10/28 08:54:38;;;;;;;8.45;4.97;;;;;;;;;;4981423;28;20030;-70
2023/10/28 08:57:05;;;;;;;10.65;5.28;;;;;;;;;;4978733;28;20050;-69
2023/10/28 08:59:31;;;;;;;10.52;4.85;;;;;;;;;;4980600;28;20049;-70
2023/10/28 09:01:58;;;;;;;10.02;5.30;;;;;;;;;;4979395;28;20038;-70
2023/10/28 09:04:24;;;;;;;9.48;5.20;;;;;;;;;;4981023;28;20026;-69
2023/10/28 09:06:52;;;;;;;8.10;5.00;;;;;;;;;;4980539;28;20585;-70
2023/10/28 09:09:18;;;;;;;8.02;4.68;;;;;;;;;;4980597;28;20102;-70
2023/10/28 09:11:46;;;;;;;10.48;4.53;;;;;;;;;;4978204;28;20821;-70
2023/10/28 09:14:12;;;;;;;8.00;4.85;;;;;;;;;;4979835;28;20072;-70
2023/10/28 09:16:38;;;;;;;7.97;4.30;;;;;;;;;;4977091;28;20033;-70
2023/10/28 09:19:04;;;;;;;9.00;4.82;;;;;;;;;;4978500;28;20037;-69
2023/10/28 09:21:31;;;;;;;11.98;5.47;;;;;;;;;;4977035;28;20049;-70
2023/10/28 09:24:00;;;;;;;8.52;4.32;;;;;;;;;;4980286;28;20028;-70
2023/10/28 09:26:26;;;;;;;9.63;5.20;;;;;;;;;;4993396;28;20068;-70
2023/10/28 09:28:52;;;;;;;7.93;4.47;;;;;;;;;;4980681;28;20037;-70
2023/10/28 09:31:25;;;;;;;10.52;5.05;;;;;;;;;;4978757;28;20038;-70
2023/10/28 09:33:52;;;;;;;9.40;4.53;;;;;;;;;;4978230;28;20033;-69
2023/10/28 09:36:18;;;;;;;8.25;3.88;;;;;;;;;;4980400;28;20133;-70
2023/10/28 09:38:47;;;;;;;6.68;3.85;;;;;;;;;;4982325;28;20053;-70
2023/10/28 09:41:14;;;;;;;10.52;4.70;;;;;;;;;;4990365;28;20044;-70
2023/10/28 09:43:40;;;;;;;11.60;4.75;;;;;;;;;;4977883;28;20041;-70
2023/10/28 09:46:07;;;;;;;8.85;4.47;;;;;;;;;;4981855;28;20084;-70
2023/10/28 09:48:35;;;;;;;7.78;4.05;;;;;;;;;;4979124;28;20028;-70
2023/10/28 09:51:01;;;;;;;11.77;4.25;;;;;;;;;;4978824;28;20037;-69
2023/10/28 09:53:33;;;;;;;10.77;4.13;;;;;;;;;;4977706;28;20033;-70
2023/10/28 09:56:02;;;;;;;8.65;3.92;;;;;;;;;;4980264;28;20440;-69
2023/10/28 09:58:31;;;;;;;11.93;3.72;;;;;;;;;;4977699;28;20042;-69
2023/10/28 10:01:16;;;;;;;9.07;3.63;;;;;;;;;;4978062;28;20033;-70
2023/10/28 10:03:57;;;;;;;9.00;4.25;;;;;;;;;;4978673;28;20053;-70
2023/10/28 10:06:24;;;;;;;9.80;4.05;;;;;;;;;;4976473;28;20026;-70
2023/10/28 10:08:52;;;;;;;12.38;4.20;;;;;;;;;;4978841;28;20105;-70
2023/10/28 10:11:22;;;;;;;7.72;3.70;;;;;;;;;;4978940;28;20131;-70
2023/10/28 10:13:48;;;;;;;7.18;4.00;;;;;;;;;;4979946;28;20038;-70
2023/10/28 10:16:24;;;;;;;11.35;4.05;;;;;;;;;;4978150;28;20034;-70
2023/10/28 10:18:51;;;;;;;12.45;4.13;;;;;;;;;;4989504;28;20022;-70
2023/10/28 10:21:18;;;;;;;6.95;3.30;;;;;;;;;;4980477;28;20030;-70
2023/10/28 10:23:54;;;;;;;7.85;3.75;;;;;;;;;;4978288;28;20030;-70
2023/10/28 10:26:25;;;;;;;6.70;3.50;;;;;;;;;;4975765;28;20069;-70
2023/10/28 10:28:52;;;;;;;8.77;4.10;;;;;;;;;;4979878;28;20516;-70
2023/10/28 10:31:20;;;;;;;8.93;3.92;;;;;;;;;;4977362;28;20092;-69
2023/10/28 10:33:46;;;;;;;9.35;3.65;;;;;;;;;;4979562;28;20029;-70
2023/10/28 10:36:19;;;;;;;8.68;3.50;;;;;;;;;;4978442;28;20033;-70
2023/10/28 10:38:45;;;;;;;8.65;3.85;;;;;;;;;;4979173;28;20058;-70
2023/10/28 10:41:12;;;;;;;9.35;3.60;;;;;;;;;;4978363;28;20034;-70
2023/10/28 10:43:38;;;;;;;6.57;3.22;;;;;;;;;;4977386;28;20971;-69
2023/10/28 10:46:04;;;;;;;9.77;3.65;;;;;;;;;;4978973;28;20084;-69
2023/10/28 10:48:33;;;;;;;9.10;3.97;;;;;;;;;;4975451;28;20034;-70
2023/10/28 10:51:00;;;;;;;8.95;3.55;;;;;;;;;;4978789;28;20481;-70
2023/10/28 10:53:26;;;;;;;9.05;3.95;;;;;;;;;;4974100;28;20124;-70
2023/10/28 10:55:52;;;;;;;9.25;3.03;;;;;;;;;;4980590;28;20121;-69
2023/10/28 10:58:19;;;;;;;8.93;3.67;;;;;;;;;;4976838;28;20045;-69
2023/10/28 11:00:55;;;;;;;8.68;3.55;;;;;;;;;;4977682;28;20130;-70
2023/10/28 11:03:24;;;;;;;8.98;3.58;;;;;;;;;;4977300;28;20029;-69
2023/10/28 11:05:51;;;;;;;8.20;2.75;;;;;;;;;;4979098;28;20038;-70
2023/10/28 11:08:17;;;;;;;9.45;3.78;;;;;;;;;;4976991;28;20026;-69
2023/10/28 11:10:45;;;;;;;11.55;3.08;;;;;;;;;;4978460;28;20030;-69
2023/10/28 11:13:11;;;;;;;9.98;3.88;;;;;;;;;;4978680;28;20930;-69
2023/10/28 11:15:38;;;;;;;9.20;3.75;;;;;;;;;;4976972;28;20033;-69
2023/10/28 11:18:04;;;;;;;13.25;4.07;;;;;;;;;;4978590;28;20041;-69
2023/10/28 11:20:30;;;;;;;8.73;3.80;;;;;;;;;;4981114;28;20049;-69
2023/10/28 11:22:56;;;;;;;11.07;3.72;;;;;;;;;;4979405;28;20041;-69
2023/10/28 11:25:30;;;;;;;8.77;3.20;;;;;;;;;;4981416;28;20033;-69
2023/10/28 11:27:57;;;;;;;8.85;3.50;;;;;;;;;;4981669;28;20049;-69
2023/10/28 11:30:24;;;;;;;8.82;3.33;;;;;;;;;;4995491;28;20080;-70
2023/10/28 11:32:54;;;;;;;9.93;3.22;;;;;;;;;;4982068;28;20030;-68
2023/10/28 11:35:20;;;;;;;9.25;3.10;;;;;;;;;;4981885;28;20982;-69
2023/10/28 11:37:46;;;;;;;8.15;3.53;;;;;;;;;;4982211;28;20654;-69
2023/10/28 11:40:12;;;;;;;12.27;3.72;;;;;;;;;;4981586;28;20042;-69
2023/10/28 11:42:39;;;;;;;11.65;4.65;;;;;;;;;;4980721;28;20145;-69
2023/10/28 11:45:07;;;;;;;9.07;3.33;;;;;;;;;;4981110;28;20041;-69
2023/10/28 11:47:33;;;;;;;10.77;3.72;;;;;;;;;;4979511;28;20041;-69
2023/10/28 11:49:59;;;;;;;10.98;3.30;;;;;;;;;;4980770;28;21732;-70
2023/10/28 11:52:26;;;;;;;10.98;3.25;;;;;;;;;;4979310;28;20041;-69
2023/10/28 11:54:53;;;;;;;8.55;3.35;;;;;;;;;;4981653;28;20034;-69
2023/10/28 11:57:19;;;;;;;10.02;3.75;;;;;;;;;;4981400;28;20051;-69
2023/10/28 11:59:45;;;;;;;7.72;3.38;;;;;;;;;;4980659;28;20062;-68
2023/10/28 12:02:11;;;;;;;10.00;3.85;;;;;;;;;;4980660;28;20125;-69
2023/10/28 12:04:37;;;;;;;6.47;2.90;;;;;;;;;;4982593;28;21918;-68
2023/10/28 12:07:03;;;;;;;8.40;3.42;;;;;;;;;;4981949;28;20041;-69
2023/10/28 12:09:35;;;;;;;6.45;2.55;;;;;;;;;;4980449;28;20252;-69
2023/10/28 12:12:01;;;;;;;7.45;3.25;;;;;;;;;;4982306;28;20723;-69
2023/10/28 12:14:28;;;;;;;11.88;3.40;;;;;;;;;;4981521;28;20030;-69
2023/10/28 12:16:54;;;;;;;7.28;2.78;;;;;;;;;;4981253;28;20122;-68
2023/10/28 12:19:20;;;;;;;9.93;2.92;;;;;;;;;;4979424;28;21731;-69
2023/10/28 12:21:46;;;;;;;7.28;2.60;;;;;;;;;;4980667;28;20034;-69
2023/10/28 12:24:12;;;;;;;7.13;2.83;;;;;;;;;;4978582;28;20030;-69
2023/10/28 12:26:38;;;;;;;10.10;2.80;;;;;;;;;;4981737;28;20038;-68
2023/10/28 12:29:04;;;;;;;10.32;2.83;;;;;;;;;;4978127;28;20500;-69
2023/10/28 12:31:32;;;;;;;6.22;2.88;;;;;;;;;;4991863;28;20065;-69
2023/10/28 12:33:58;;;;;;;10.52;3.13;;;;;;;;;;4981132;28;20105;-69
2023/10/28 12:36:24;;;;;;;8.35;3.35;;;;;;;;;;4979908;28;20087;-69
2023/10/28 12:38:50;;;;;;;9.85;3.03;;;;;;;;;;4979964;28;20042;-69
2023/10/28 12:41:16;;;;;;;6.50;2.72;;;;;;;;;;4981806;28;20071;-69
2023/10/28 12:43:42;;;;;;;9.35;3.15;;;;;;;;;;4980809;28;20038;-69
2023/10/28 12:46:09;;;;;;;8.35;2.70;;;;;;;;;;4978637;28;20494;-69
2023/10/28 12:48:36;;;;;;;9.38;3.45;;;;;;;;;;4981052;28;20081;-69
2023/10/28 12:51:02;;;;;;;8.57;2.97;;;;;;;;;;4981096;28;20038;-69
2023/10/28 12:53:29;;;;;;;9.52;3.10;;;;;;;;;;4980355;28;20034;-69
2023/10/28 12:55:55;;;;;;;11.90;2.58;;;;;;;;;;4978987;28;20025;-70
2023/10/28 12:58:21;;;;;;;13.82;3.60;;;;;;;;;;4982024;28;20053;-69
2023/10/28 13:00:49;;;;;;;10.85;2.55;;;;;;;;;;4981099;28;21201;-69
2023/10/28 13:03:15;;;;;;;9.07;2.88;;;;;;;;;;4991943;28;20106;-69
2023/10/28 13:05:41;;;;;;;7.90;2.88;;;;;;;;;;4981963;28;20026;-69
2023/10/28 13:08:07;;;;;;;8.98;2.72;;;;;;;;;;4978842;28;20037;-69
2023/10/28 13:10:33;;;;;;;8.27;2.85;;;;;;;;;;4980592;28;20203;-69
2023/10/28 13:13:00;;;;;;;13.23;2.85;;;;;;;;;;4979062;28;20129;-70
2023/10/28 13:15:27;;;;;;;7.72;2.50;;;;;;;;;;4980064;28;20819;-69
2023/10/28 13:17:53;;;;;;;7.00;2.60;;;;;;;;;;4979757;28;20061;-69
2023/10/28 13:20:19;;;;;;;8.32;2.90;;;;;;;;;;4980949;28;20045;-69
2023/10/28 13:22:45;;;;;;;7.28;3.08;;;;;;;;;;4981202;28;20037;-69
2023/10/28 13:25:11;;;;;;;6.72;2.38;;;;;;;;;;4978387;28;20033;-69
2023/10/28 13:27:39;;;;;;;7.25;2.10;;;;;;;;;;4981261;28;21756;-69
2023/10/28 13:30:06;;;;;;;5.70;2.38;;;;;;;;;;4979442;28;20060;-69
2023/10/28 13:32:32;;;;;;;6.13;2.35;;;;;;;;;;4980039;28;20038;-70
2023/10/28 13:35:00;;;;;;;9.18;2.70;;;;;;;;;;4979090;28;20037;-69
2023/10/28 13:37:26;;;;;;;9.48;2.70;;;;;;;;;;4979876;28;20041;-69
2023/10/28 13:39:52;;;;;;;8.52;2.42;;;;;;;;;;4980351;28;20038;-69
2023/10/28 13:42:18;;;;;;;8.65;2.70;;;;;;;;;;4980770;28;20038;-69
2023/10/28 13:44:44;;;;;;;10.13;3.10;;;;;;;;;;4978922;28;20082;-69
2023/10/28 13:47:10;;;;;;;9.85;2.78;;;;;;;;;;4979740;28;20037;-69
2023/10/28 13:49:36;;;;;;;8.10;2.53;;;;;;;;;;4980875;28;20038;-68
2023/10/28 13:52:03;;;;;;;6.10;2.17;;;;;;;;;;4979209;28;20043;-69
2023/10/28 13:54:31;;;;;;;6.65;2.38;;;;;;;;;;4978357;28;20072;-69
2023/10/28 13:56:57;;;;;;;7.80;2.30;;;;;;;;;;4976445;28;20041;-69
2023/10/28 13:59:23;;;;;;;8.43;2.63;;;;;;;;;;4980843;28;20054;-69
2023/10/28 14:01:51;;;;;;;10.95;2.70;;;;;;;;;;4979452;28;20050;-69
2023/10/28 14:04:17;;;;;;;9.07;2.95;;;;;;;;;;4979452;28;20113;-69
2023/10/28 14:06:44;;;;;;;6.85;1.98;;;;;;;;;;4978061;28;20038;-69
2023/10/28 14:09:11;;;;;;;8.52;2.40;;;;;;;;;;4978862;28;20023;-69
2023/10/28 14:11:37;;;;;;;16.42;2.85;;;;;;;;;;4980978;28;20087;-69
2023/10/28 14:14:03;;;;;;;6.22;2.47;;;;;;;;;;4977128;28;20117;-69
2023/10/28 14:16:29;;;;;;;7.80;2.92;;;;;;;;;;4979622;28;20524;-69
2023/10/28 14:18:57;;;;;;;7.53;2.10;;;;;;;;;;4979543;28;20042;-69
2023/10/28 14:21:23;;;;;;;9.13;2.13;;;;;;;;;;4979449;28;20041;-69
2023/10/28 14:23:49;;;;;;;8.93;2.30;;;;;;;;;;4978097;28;20026;-69
2023/10/28 14:26:16;;;;;;;12.00;2.30;;;;;;;;;;4976770;28;20100;-69